createdAt,value
2023-03-28T00:01:13.595Z,99062.56
2023-03-28T00:03:42.673Z,99059.81
2023-03-28T00:06:19.013Z,99063.66
2023-03-28T00:08:48.323Z,99059.47
2023-03-28T00:11:20.973Z,99067.91
2023-03-28T00:14:01.284Z,99063.53
2023-03-28T00:16:36.335Z,99063.75
2023-03-28T00:19:12.982Z,99067.22
2023-03-28T00:21:49.553Z,99067.09
2023-03-28T00:24:21.713Z,99070.72
2023-03-28T00:26:54.754Z,99079.34
2023-03-28T00:29:26.320Z,99070.06
2023-03-28T00:31:54.276Z,99089.38
2023-03-28T00:34:22.566Z,99088.53
2023-03-28T00:36:54.232Z,99091.44
2023-03-28T00:39:22.324Z,99094.78
2023-03-28T00:41:51.067Z,99095.84
2023-03-28T00:44:57.224Z,99103.78
2023-03-28T00:47:53.167Z,99102.41
2023-03-28T00:50:47.077Z,99106.59
2023-03-28T00:53:20.723Z,99113.00
2023-03-28T00:56:01.870Z,99110.22
2023-03-28T00:58:35.535Z,99117.63
2023-03-28T01:01:04.322Z,99111.75
2023-03-28T01:03:37.849Z,99117.88
2023-03-28T01:06:08.442Z,99120.44
2023-03-28T01:08:41.599Z,99123.72
2023-03-28T01:11:12.855Z,99130.94
2023-03-28T01:13:51.890Z,99129.78
2023-03-28T01:16:23.382Z,99130.06
2023-03-28T01:18:51.865Z,99139.91
2023-03-28T01:22:24.607Z,99141.75
2023-03-28T01:25:53.703Z,99130.28
2023-03-28T01:29:26.734Z,99143.41
2023-03-28T01:32:49.672Z,99151.59
2023-03-28T01:35:36.861Z,99157.19
2023-03-28T01:38:39.065Z,99162.59
2023-03-28T01:41:18.848Z,99168.75
2023-03-28T01:44:22.430Z,99167.44
2023-03-28T01:47:40.568Z,99170.81
2023-03-28T01:50:46.816Z,99160.41
2023-03-28T01:53:44.261Z,99177.69
2023-03-28T01:56:45.446Z,99175.25
2023-03-28T01:59:54.461Z,99166.34
2023-03-28T02:02:33.612Z,99171.75
2023-03-28T02:05:09.587Z,99175.81
2023-03-28T02:07:41.564Z,99179.22
2023-03-28T02:10:13.036Z,99179.22
2023-03-28T02:12:58.213Z,99179.22
2023-03-28T02:15:29.370Z,99179.22
2023-03-28T02:18:07.197Z,76462.16
2023-03-28T02:20:39.471Z,99179.22
2023-03-28T02:23:27.376Z,99179.22
2023-03-28T02:25:55.357Z,62182.44
2023-03-28T02:28:25.102Z,62182.44
2023-03-28T02:30:53.513Z,62182.44
2023-03-28T02:33:48.834Z,62182.44
2023-03-28T02:37:00.686Z,62182.44
2023-03-28T02:40:08.484Z,62182.44
2023-03-28T02:44:11.071Z,62182.44
2023-03-28T02:48:21.345Z,62182.44
2023-03-28T02:52:40.438Z,62182.44
2023-03-28T02:56:37.934Z,62182.44
2023-03-28T03:00:13.233Z,62182.44
2023-03-28T03:03:44.682Z,62182.44
2023-03-28T03:07:11.306Z,62182.44
2023-03-28T03:10:38.365Z,62182.44
2023-03-28T03:14:04.891Z,62182.44
2023-03-28T03:17:32.058Z,62182.44
2023-03-28T03:21:01.925Z,62182.44
2023-03-28T03:24:29.274Z,62182.44
2023-03-28T03:27:55.533Z,62182.44
2023-03-28T03:31:23.517Z,62182.44
2023-03-28T03:34:49.934Z,62182.44
2023-03-28T03:38:17.385Z,62182.44
2023-03-28T03:41:43.648Z,62182.44
2023-03-28T03:45:11.556Z,62182.44
2023-03-28T03:48:38.678Z,62182.44
2023-03-28T03:52:16.095Z,62182.44
2023-03-28T03:55:42.470Z,62182.44
2023-03-28T03:59:09.054Z,62182.44
2023-03-28T04:02:35.464Z,62182.44
2023-03-28T04:06:05.381Z,62182.44
2023-03-28T04:09:32.971Z,62182.44
2023-03-28T04:13:00.100Z,62182.44
2023-03-28T04:16:27.993Z,62182.44
2023-03-28T04:20:14.288Z,62182.44
2023-03-28T04:23:44.214Z,62182.44
2023-03-28T04:27:12.366Z,62182.44
2023-03-28T04:30:38.818Z,62182.44
2023-03-28T04:34:06.570Z,62182.44
2023-03-28T04:37:32.978Z,62182.44
2023-03-28T04:40:59.965Z,62182.44
2023-03-28T04:44:26.939Z,62182.44
2023-03-28T04:47:53.995Z,62182.44
2023-03-28T04:51:21.582Z,62182.44
2023-03-28T04:54:48.180Z,62182.44
2023-03-28T04:58:14.840Z,62182.44
2023-03-28T05:01:42.291Z,62182.44
2023-03-28T05:05:11.342Z,62182.44
2023-03-28T05:08:38.571Z,62182.44
2023-03-28T05:12:07.725Z,62182.44
2023-03-28T05:15:34.347Z,62182.44
2023-03-28T05:19:01.405Z,62182.44
2023-03-28T05:22:29.569Z,62182.44
2023-03-28T05:25:59.129Z,62182.44
2023-03-28T05:29:27.323Z,62182.44
2023-03-28T05:32:54.134Z,62182.44
2023-03-28T05:36:20.808Z,62182.44
2023-03-28T05:39:47.961Z,62182.44
2023-03-28T05:43:15.143Z,62182.44
2023-03-28T05:46:42.296Z,62182.44
2023-03-28T05:50:11.084Z,62182.44
2023-03-28T05:53:38.949Z,62182.44
2023-03-28T05:57:05.841Z,62182.44
2023-03-28T06:00:33.217Z,62182.44
2023-03-28T06:04:00.977Z,62182.44
2023-03-28T06:07:41.574Z,62182.44
2023-03-28T06:11:10.509Z,62182.44
2023-03-28T06:14:39.579Z,62182.44
2023-03-28T06:18:07.895Z,62182.44
2023-03-28T06:21:35.040Z,62182.44
2023-03-28T06:25:06.615Z,62182.44
2023-03-28T06:28:33.423Z,62182.44
2023-03-28T06:32:00.522Z,62182.44
2023-03-28T06:35:28.767Z,62182.44
2023-03-28T06:38:55.197Z,62182.44
2023-03-28T06:42:21.863Z,62182.44
2023-03-28T06:45:49.950Z,62182.44
2023-03-28T06:49:17.113Z,62182.44
2023-03-28T06:52:44.660Z,62182.44
2023-03-28T06:56:12.276Z,62182.44
2023-03-28T06:59:38.565Z,62182.44
2023-03-28T07:03:04.941Z,62182.44
2023-03-28T07:06:31.361Z,62182.44
2023-03-28T07:09:57.824Z,62182.44
2023-03-28T07:13:24.134Z,62182.44
2023-03-28T07:17:04.046Z,62182.44
2023-03-28T07:20:30.294Z,62182.44
2023-03-28T07:23:56.789Z,62182.44
2023-03-28T07:27:25.094Z,62182.44
2023-03-28T07:30:53.650Z,62182.44
2023-03-28T07:34:22.660Z,62182.44
2023-03-28T07:37:49.829Z,62182.44
2023-03-28T07:41:19.081Z,62182.44
2023-03-28T07:44:46.327Z,62182.44
2023-03-28T07:48:15.590Z,62182.44
2023-03-28T07:51:42.765Z,62182.44
2023-03-28T07:55:13.747Z,62182.44
2023-03-28T07:58:44.065Z,62182.44
2023-03-28T08:02:16.136Z,62182.44
2023-03-28T08:05:43.838Z,62182.44
2023-03-28T08:09:14.304Z,62182.44
2023-03-28T08:12:41.771Z,62182.44
2023-03-28T08:16:09.496Z,62182.44
2023-03-28T08:19:36.621Z,62182.44
2023-03-28T08:23:03.692Z,62182.44
2023-03-28T08:26:30.334Z,62182.44
2023-03-28T08:29:58.271Z,62182.44
2023-03-28T08:33:25.134Z,62182.44
2023-03-28T08:36:54.119Z,62182.44
2023-03-28T08:40:21.578Z,62182.44
2023-03-28T08:44:17.202Z,62182.44
2023-03-28T08:48:19.655Z,62182.44
2023-03-28T08:51:59.908Z,62182.44
2023-03-28T08:55:41.456Z,62182.44
2023-03-28T08:59:19.465Z,62182.44
2023-03-28T09:02:46.146Z,62182.44
2023-03-28T09:06:41.257Z,62182.44
2023-03-28T09:10:40.885Z,62182.44
2023-03-28T09:15:05.587Z,62182.44
2023-03-28T09:19:00.739Z,62182.44
2023-03-28T09:22:43.997Z,62182.44
2023-03-28T09:26:33.354Z,62182.44
2023-03-28T09:30:38.387Z,62182.44
2023-03-28T09:34:27.794Z,62182.44
2023-03-28T09:38:27.043Z,62182.44
2023-03-28T09:42:12.057Z,62182.44
2023-03-28T09:46:39.511Z,62182.44
2023-03-28T09:50:19.565Z,62182.44
2023-03-28T09:53:48.634Z,62182.44
2023-03-28T09:57:17.713Z,62182.44
2023-03-28T10:00:50.769Z,62182.44
2023-03-28T10:04:36.594Z,62182.44
2023-03-28T10:08:32.942Z,62182.44
2023-03-28T10:12:19.338Z,62182.44
2023-03-28T10:15:50.390Z,62182.44
2023-03-28T10:19:26.601Z,62182.44
2023-03-28T10:22:55.005Z,62182.44
2023-03-28T10:26:31.114Z,62182.44
2023-03-28T10:30:09.605Z,62182.44
2023-03-28T10:33:41.190Z,62182.44
2023-03-28T10:37:27.995Z,62182.44
2023-03-28T10:41:12.860Z,62182.44
2023-03-28T10:44:41.168Z,62182.44
2023-03-28T10:48:20.725Z,62182.44
2023-03-28T10:51:49.367Z,62182.44
2023-03-28T10:55:25.400Z,62182.44
2023-03-28T10:59:32.044Z,62182.44
2023-03-28T11:03:35.128Z,62182.44
2023-03-28T11:07:37.086Z,62182.44
2023-03-28T11:11:44.835Z,62182.44
2023-03-28T11:15:26.827Z,62182.44
2023-03-28T11:19:21.267Z,62182.44
2023-03-28T11:23:16.398Z,62182.44
2023-03-28T11:26:49.482Z,62182.44
2023-03-28T11:30:35.004Z,62182.44
2023-03-28T11:34:32.376Z,62182.44
2023-03-28T11:38:22.562Z,62182.44
2023-03-28T11:42:06.984Z,62182.44
2023-03-28T11:45:52.632Z,62182.44
2023-03-28T11:49:38.649Z,62182.44
2023-03-28T11:53:35.123Z,62182.44
2023-03-28T11:57:42.741Z,62182.44
2023-03-28T12:01:24.125Z,62182.44
2023-03-28T12:05:33.289Z,62182.44
2023-03-28T12:09:30.936Z,62182.44
2023-03-28T12:13:21.350Z,62182.44
2023-03-28T12:16:52.804Z,62182.44
2023-03-28T12:19:38.343Z,99610.25
2023-03-28T12:22:40.532Z,99615.78
2023-03-28T12:25:46.106Z,99621.22
2023-03-28T12:28:51.896Z,99618.22
2023-03-28T12:31:35.831Z,99622.34
2023-03-28T12:34:16.165Z,99611.59
2023-03-28T12:37:12.293Z,99624.06
2023-03-28T12:39:59.808Z,99631.19
2023-03-28T12:42:29.933Z,99631.19
2023-03-28T12:45:07.038Z,62182.44
2023-03-28T12:47:42.003Z,62182.44
2023-03-28T12:51:39.115Z,62182.44
2023-03-28T12:55:27.371Z,62182.44
2023-03-28T12:59:39.174Z,62182.44
2023-03-28T13:03:51.556Z,62182.44
2023-03-28T13:08:01.033Z,62182.44
2023-03-28T13:12:08.441Z,62182.44
2023-03-28T13:16:08.118Z,62182.44
2023-03-28T13:19:56.275Z,62182.44
2023-03-28T13:23:37.500Z,62182.44
2023-03-28T13:27:29.672Z,62182.44
2023-03-28T13:31:13.471Z,62182.44
2023-03-28T13:34:01.989Z,99678.06
2023-03-28T13:36:35.743Z,99678.78
2023-03-28T13:39:25.517Z,99692.16
2023-03-28T13:41:58.726Z,99677.88
2023-03-28T13:44:45.817Z,99689.03
2023-03-28T13:47:27.264Z,99691.84
2023-03-28T13:50:24.619Z,99684.13
2023-03-28T13:52:53.220Z,99684.13
2023-03-28T13:55:27.372Z,99698.28
2023-03-28T13:57:56.081Z,77641.53
2023-03-28T14:00:27.087Z,62182.44
2023-03-28T14:03:05.645Z,62182.44
2023-03-28T14:05:36.180Z,81623.22
2023-03-28T14:08:14.734Z,62182.44
2023-03-28T14:10:46.134Z,62182.44
2023-03-28T14:13:24.149Z,62182.44
2023-03-28T14:15:54.268Z,99717.81
2023-03-28T14:18:36.612Z,99718.63
2023-03-28T14:21:08.670Z,99707.19
2023-03-28T14:23:41.570Z,99721.38
2023-03-28T14:26:18.898Z,99732.22
2023-03-28T14:28:47.956Z,99732.22
2023-03-28T14:31:37.203Z,62182.44
2023-03-28T14:34:27.012Z,62182.44
2023-03-28T14:37:30.141Z,62182.44
2023-03-28T14:39:58.842Z,62182.44
2023-03-28T14:42:32.295Z,62182.44
2023-03-28T14:45:00.148Z,62182.44
2023-03-28T14:47:33.787Z,62182.44
2023-03-28T14:50:03.889Z,62182.44
2023-03-28T14:52:37.456Z,62182.44
2023-03-28T14:55:26.972Z,62182.44
2023-03-28T14:57:56.007Z,62182.44
2023-03-28T15:00:37.875Z,62182.44
2023-03-28T15:03:15.292Z,62182.44
2023-03-28T15:05:52.173Z,62182.44
2023-03-28T15:08:22.897Z,62182.44
2023-03-28T15:10:54.744Z,62182.44
2023-03-28T15:13:41.655Z,62182.44
2023-03-28T15:16:23.609Z,62182.44
2023-03-28T15:19:08.306Z,62182.44
2023-03-28T15:21:41.490Z,62182.44
2023-03-28T15:24:18.066Z,62182.44
2023-03-28T15:26:51.872Z,62182.44
2023-03-28T15:29:25.617Z,62182.44
2023-03-28T15:32:14.386Z,62182.44
2023-03-28T15:35:10.239Z,62182.44
2023-03-28T15:37:46.311Z,62182.44
2023-03-28T15:40:29.322Z,62182.44
2023-03-28T15:42:57.691Z,62182.44
2023-03-28T15:46:00.265Z,62182.44
2023-03-28T15:48:34.898Z,62182.44
2023-03-28T15:51:17.770Z,62182.44
2023-03-28T15:53:50.682Z,62182.44
2023-03-28T15:56:28.584Z,62182.44
2023-03-28T15:59:16.526Z,62182.44
2023-03-28T16:01:45.210Z,62182.44
2023-03-28T16:04:21.831Z,62182.44
2023-03-28T16:07:05.057Z,62182.44
2023-03-28T16:09:35.055Z,62182.44
2023-03-28T16:12:04.793Z,62182.44
2023-03-28T16:14:32.599Z,62182.44
2023-03-28T16:17:01.580Z,62182.44
2023-03-28T16:19:35.343Z,62182.44
2023-03-28T16:22:05.863Z,62182.44
2023-03-28T16:24:34.951Z,62182.44
2023-03-28T16:27:03.584Z,62182.44
2023-03-28T16:29:31.712Z,62182.44
2023-03-28T16:32:00.389Z,62182.44
2023-03-28T16:34:28.984Z,62182.44
2023-03-28T16:36:58.177Z,62182.44
2023-03-28T16:39:26.005Z,62182.44
2023-03-28T16:41:55.232Z,62182.44
2023-03-28T16:44:23.903Z,62182.44
2023-03-28T16:46:53.209Z,62182.44
2023-03-28T16:49:21.087Z,62182.44
2023-03-28T16:51:49.755Z,62182.44
2023-03-28T16:54:18.244Z,62182.44
2023-03-28T16:56:46.082Z,62182.44
2023-03-28T16:59:14.878Z,62182.44
2023-03-28T17:01:46.488Z,62182.44
2023-03-28T17:04:14.355Z,62182.44
2023-03-28T17:06:42.958Z,62182.44
2023-03-28T17:09:10.736Z,62182.44
2023-03-28T17:11:40.513Z,62182.44
2023-03-28T17:14:08.464Z,62182.44
2023-03-28T17:16:37.439Z,62182.44
2023-03-28T17:19:05.216Z,62182.44
2023-03-28T17:21:34.091Z,62182.44
2023-03-28T17:24:02.756Z,62182.44
2023-03-28T17:26:30.800Z,62182.44
2023-03-28T17:28:59.564Z,62182.44
2023-03-28T17:31:27.902Z,62182.44
2023-03-28T17:33:58.717Z,62182.44
2023-03-28T17:36:30.394Z,62182.44
2023-03-28T17:39:04.699Z,62182.44
2023-03-28T17:41:33.409Z,62182.44
2023-03-28T17:44:01.412Z,62182.44
2023-03-28T17:46:31.907Z,62182.44
2023-03-28T17:48:59.879Z,62182.44
2023-03-28T17:51:28.698Z,62182.44
2023-03-28T17:53:56.602Z,62182.44
2023-03-28T17:56:25.981Z,62182.44
2023-03-28T17:58:54.609Z,62182.44
2023-03-28T18:01:25.662Z,62182.44
2023-03-28T18:04:02.002Z,62182.44
2023-03-28T18:06:30.137Z,62182.44
2023-03-28T18:08:58.025Z,62182.44
2023-03-28T18:11:27.268Z,62182.44
2023-03-28T18:13:59.129Z,62182.44
2023-03-28T18:16:29.416Z,62182.44
2023-03-28T18:18:57.733Z,62182.44
2023-03-28T18:21:26.097Z,62182.44
2023-03-28T18:23:54.863Z,62182.44
2023-03-28T18:26:24.267Z,62182.44
2023-03-28T18:28:52.200Z,62182.44
2023-03-28T18:31:28.307Z,62182.44
2023-03-28T18:33:57.965Z,62182.44
2023-03-28T18:36:27.115Z,62182.44
2023-03-28T18:38:56.364Z,62182.44
2023-03-28T18:41:25.561Z,62182.44
2023-03-28T18:43:53.532Z,62182.44
2023-03-28T18:46:22.350Z,62182.44
2023-03-28T18:48:50.784Z,62182.44
2023-03-28T18:51:20.720Z,62182.44
2023-03-28T18:53:49.859Z,62182.44
2023-03-28T18:56:22.227Z,62182.44
2023-03-28T18:58:53.382Z,62182.44
2023-03-28T19:01:23.406Z,62182.44
2023-03-28T19:03:52.504Z,62182.44
2023-03-28T19:06:24.426Z,62182.44
2023-03-28T19:08:55.865Z,62182.44
2023-03-28T19:11:23.870Z,62182.44
2023-03-28T19:13:55.548Z,62182.44
2023-03-28T19:16:25.675Z,62182.44
2023-03-28T19:18:53.639Z,62182.44
2023-03-28T19:21:22.721Z,62182.44
2023-03-28T19:23:51.930Z,62182.44
2023-03-28T19:26:22.504Z,62182.44
2023-03-28T19:28:50.810Z,62182.44
2023-03-28T19:31:24.182Z,62182.44
2023-03-28T19:33:53.284Z,62182.44
2023-03-28T19:36:23.085Z,62182.44
2023-03-28T19:38:59.620Z,62182.44
2023-03-28T19:41:35.734Z,62182.44
2023-03-28T19:44:03.599Z,62182.44
2023-03-28T19:46:35.449Z,62182.44
2023-03-28T19:49:07.165Z,62182.44
2023-03-28T19:51:35.836Z,62182.44
2023-03-28T19:54:04.996Z,62182.44
2023-03-28T19:56:35.906Z,62182.44
2023-03-28T19:59:05.603Z,62182.44
2023-03-28T20:01:36.599Z,62182.44
2023-03-28T20:04:05.503Z,62182.44
2023-03-28T20:06:33.405Z,62182.44
2023-03-28T20:09:01.321Z,62182.44
2023-03-28T20:11:31.928Z,62182.44
2023-03-28T20:14:00.579Z,62182.44
2023-03-28T20:16:29.289Z,62182.44
2023-03-28T20:18:58.531Z,62182.44
2023-03-28T20:21:30.652Z,62182.44
2023-03-28T20:23:59.294Z,62182.44
2023-03-28T20:26:27.384Z,62182.44
2023-03-28T20:28:59.704Z,62182.44
2023-03-28T20:31:29.184Z,62182.44
2023-03-28T20:33:57.616Z,62182.44
2023-03-28T20:36:25.754Z,62182.44
2023-03-28T20:38:55.115Z,62182.44
2023-03-28T20:41:24.379Z,62182.44
2023-03-28T20:43:53.429Z,62182.44
2023-03-28T20:46:23.879Z,62182.44
2023-03-28T20:48:54.776Z,62182.44
2023-03-28T20:51:23.494Z,62182.44
2023-03-28T20:54:02.466Z,62182.44
2023-03-28T20:56:32.457Z,62182.44
2023-03-28T20:59:00.520Z,62182.44
2023-03-28T21:01:33.191Z,62182.44
2023-03-28T21:04:02.405Z,62182.44
2023-03-28T21:06:38.430Z,62182.44
2023-03-28T21:09:15.854Z,62182.44
2023-03-28T21:11:44.236Z,62182.44
2023-03-28T21:14:14.635Z,62182.44
2023-03-28T21:16:42.721Z,62182.44
2023-03-28T21:19:11.810Z,62182.44
2023-03-28T21:21:40.704Z,62182.44
2023-03-28T21:24:08.891Z,62182.44
2023-03-28T21:26:37.498Z,62182.44
2023-03-28T21:29:05.995Z,62182.44
2023-03-28T21:31:33.901Z,62182.44
2023-03-28T21:34:02.770Z,62182.44
2023-03-28T21:36:31.431Z,62182.44
2023-03-28T21:39:00.170Z,62182.44
2023-03-28T21:41:28.258Z,62182.44
2023-03-28T21:43:57.239Z,62182.44
2023-03-28T21:46:25.466Z,62182.44
2023-03-28T21:48:54.315Z,62182.44
2023-03-28T21:51:22.173Z,62182.44
2023-03-28T21:53:50.101Z,62182.44
2023-03-28T21:56:17.873Z,62182.44
2023-03-28T21:58:45.758Z,62182.44
2023-03-28T22:01:17.955Z,62182.44
2023-03-28T22:03:47.731Z,62182.44
2023-03-28T22:06:18.898Z,62182.44
2023-03-28T22:08:52.381Z,62182.44
2023-03-28T22:11:30.886Z,62182.44
2023-03-28T22:14:05.024Z,62182.44
2023-03-28T22:16:39.331Z,62182.44
2023-03-28T22:19:09.902Z,62182.44
2023-03-28T22:21:38.362Z,62182.44
2023-03-28T22:24:13.278Z,62182.44
2023-03-28T22:26:42.198Z,62182.44
2023-03-28T22:29:11.296Z,62182.44
2023-03-28T22:31:39.100Z,62182.44
2023-03-28T22:34:07.401Z,62182.44
2023-03-28T22:36:35.517Z,62182.44
2023-03-28T22:39:03.310Z,62182.44
2023-03-28T22:41:32.064Z,62182.44
2023-03-28T22:44:00.412Z,62182.44
2023-03-28T22:46:28.360Z,62182.44
2023-03-28T22:48:58.725Z,62182.44
2023-03-28T22:51:28.344Z,62182.44
2023-03-28T22:54:00.557Z,62182.44
2023-03-28T22:56:28.412Z,62182.44
2023-03-28T22:58:57.721Z,62182.44
2023-03-28T23:01:26.303Z,62182.44
2023-03-28T23:03:54.213Z,62182.44
2023-03-28T23:06:22.918Z,62182.44
2023-03-28T23:08:50.770Z,62182.44
2023-03-28T23:11:18.561Z,62182.44
2023-03-28T23:13:46.579Z,62182.44
2023-03-28T23:16:15.556Z,62182.44
2023-03-28T23:18:43.638Z,62182.44
2023-03-28T23:21:11.440Z,62182.44
2023-03-28T23:23:41.027Z,62182.44
2023-03-28T23:26:09.738Z,62182.44
2023-03-28T23:28:40.671Z,62182.44
2023-03-28T23:31:10.974Z,62182.44
2023-03-28T23:33:39.443Z,62182.44
2023-03-28T23:36:08.237Z,62182.44
2023-03-28T23:38:37.068Z,62182.44
2023-03-28T23:41:06.760Z,62182.44
2023-03-28T23:43:35.317Z,62182.44
2023-03-28T23:46:04.643Z,62182.44
2023-03-28T23:48:32.756Z,62182.44
2023-03-28T23:51:02.302Z,62182.44
2023-03-28T23:53:30.643Z,62182.44
2023-03-28T23:55:59.226Z,62182.44
2023-03-28T23:58:27.080Z,62182.44
